sensor_id;sensor_type;location;lat;lon;timestamp;temperature;humidity
78522;SHT31;67819;51.972;5.678;2024-03-23T00:53:33;9.9;76.4
78522;SHT31;67819;51.972;5.678;2024-03-23T00:56:02;9.9;76.6
78522;SHT31;67819;51.972;5.678;2024-03-23T00:58:31;9.9;76.6
78522;SHT31;67819;51.972;5.678;2024-03-23T01:00:59;9.9;76.7
78522;SHT31;67819;51.972;5.678;2024-03-23T01:03:30;9.9;76.4
78522;SHT31;67819;51.972;5.678;2024-03-23T01:06:01;9.9;76.5
78522;SHT31;67819;51.972;5.678;2024-03-23T01:08:30;9.9;76.6
78522;SHT31;67819;51.972;5.678;2024-03-23T01:11:00;9.9;76.7
78522;SHT31;67819;51.972;5.678;2024-03-23T01:13:29;9.9;76.7
78522;SHT31;67819;51.972;5.678;2024-03-23T01:15:57;9.9;76.6
78522;SHT31;67819;51.972;5.678;2024-03-23T01:18:26;9.9;76.2
78522;SHT31;67819;51.972;5.678;2024-03-23T01:20:55;9.9;76.1
78522;SHT31;67819;51.972;5.678;2024-03-23T01:23:24;9.9;77.0
78522;SHT31;67819;51.972;5.678;2024-03-23T01:25:55;9.8;76.9
78522;SHT31;67819;51.972;5.678;2024-03-23T01:28:24;9.8;77.6
78522;SHT31;67819;51.972;5.678;2024-03-23T01:30:53;9.8;77.9
78522;SHT31;67819;51.972;5.678;2024-03-23T01:33:21;9.8;77.4
78522;SHT31;67819;51.972;5.678;2024-03-23T01:35:50;9.9;77.3
78522;SHT31;67819;51.972;5.678;2024-03-23T01:38:18;9.9;77.4
78522;SHT31;67819;51.972;5.678;2024-03-23T01:40:47;9.9;77.3
78522;SHT31;67819;51.972;5.678;2024-03-23T01:43:15;9.9;77.4
78522;SHT31;67819;51.972;5.678;2024-03-23T01:45:44;9.9;77.2
78522;SHT31;67819;51.972;5.678;2024-03-23T01:48:13;9.9;77.4
78522;SHT31;67819;51.972;5.678;2024-03-23T01:50:43;9.9;77.0
78522;SHT31;67819;51.972;5.678;2024-03-23T01:53:13;10.0;77.1
78522;SHT31;67819;51.972;5.678;2024-03-23T01:55:43;10.0;77.3
78522;SHT31;67819;51.972;5.678;2024-03-23T01:58:12;10.0;77.1
78522;SHT31;67819;51.972;5.678;2024-03-23T02:00:41;10.0;77.0
78522;SHT31;67819;51.972;5.678;2024-03-23T02:03:24;10.0;77.0
78522;SHT31;67819;51.972;5.678;2024-03-23T02:05:53;10.0;77.2
78522;SHT31;67819;51.972;5.678;2024-03-23T02:08:23;10.0;77.3
78522;SHT31;67819;51.972;5.678;2024-03-23T02:10:52;10.0;77.2
78522;SHT31;67819;51.972;5.678;2024-03-23T02:13:20;10.0;77.1
78522;SHT31;67819;51.972;5.678;2024-03-23T02:15:49;10.0;77.1
78522;SHT31;67819;51.972;5.678;2024-03-23T02:18:20;10.0;76.9
78522;SHT31;67819;51.972;5.678;2024-03-23T02:20:48;10.0;76.6
78522;SHT31;67819;51.972;5.678;2024-03-23T02:23:17;10.0;76.3
78522;SHT31;67819;51.972;5.678;2024-03-23T02:25:48;10.0;76.2
78522;SHT31;67819;51.972;5.678;2024-03-23T02:28:17;10.0;75.8
78522;SHT31;67819;51.972;5.678;2024-03-23T02:30:45;9.9;76.0
78522;SHT31;67819;51.972;5.678;2024-03-23T02:33:14;9.9;76.0
78522;SHT31;67819;51.972;5.678;2024-03-23T02:35:43;9.8;76.2
78522;SHT31;67819;51.972;5.678;2024-03-23T02:38:12;9.8;76.3
78522;SHT31;67819;51.972;5.678;2024-03-23T02:40:40;9.7;76.4
78522;SHT31;67819;51.972;5.678;2024-03-23T02:43:09;9.6;76.7
78522;SHT31;67819;51.972;5.678;2024-03-23T02:45:37;9.6;76.8
78522;SHT31;67819;51.972;5.678;2024-03-23T02:48:08;9.5;76.9
78522;SHT31;67819;51.972;5.678;2024-03-23T02:50:37;9.5;77.3
78522;SHT31;67819;51.972;5.678;2024-03-23T02:53:06;9.5;77.1
78522;SHT31;67819;51.972;5.678;2024-03-23T02:55:34;9.4;77.0
78522;SHT31;67819;51.972;5.678;2024-03-23T02:58:04;9.4;77.2
78522;SHT31;67819;51.972;5.678;2024-03-23T03:00:34;9.3;77.1
78522;SHT31;67819;51.972;5.678;2024-03-23T03:03:03;9.3;77.3
78522;SHT31;67819;51.972;5.678;2024-03-23T03:05:32;9.2;77.5
78522;SHT31;67819;51.972;5.678;2024-03-23T03:08:00;9.2;77.6
78522;SHT31;67819;51.972;5.678;2024-03-23T03:10:29;9.1;77.6
78522;SHT31;67819;51.972;5.678;2024-03-23T03:13:01;9.1;77.7
78522;SHT31;67819;51.972;5.678;2024-03-23T03:15:30;9.1;77.7
78522;SHT31;67819;51.972;5.678;2024-03-23T03:17:59;9.0;77.8
78522;SHT31;67819;51.972;5.678;2024-03-23T03:20:27;9.0;78.0
78522;SHT31;67819;51.972;5.678;2024-03-23T03:22:56;9.0;78.2
78522;SHT31;67819;51.972;5.678;2024-03-23T03:25:25;8.9;78.2
78522;SHT31;67819;51.972;5.678;2024-03-23T03:27:54;8.9;78.3
78522;SHT31;67819;51.972;5.678;2024-03-23T03:30:22;8.9;78.2
78522;SHT31;67819;51.972;5.678;2024-03-23T03:32:53;8.9;77.9
78522;SHT31;67819;51.972;5.678;2024-03-23T03:35:21;8.9;77.5
78522;SHT31;67819;51.972;5.678;2024-03-23T03:37:50;8.9;77.3
78522;SHT31;67819;51.972;5.678;2024-03-23T03:40:19;8.9;77.4
78522;SHT31;67819;51.972;5.678;2024-03-23T03:42:47;8.9;76.9
78522;SHT31;67819;51.972;5.678;2024-03-23T03:45:16;8.9;76.8
78522;SHT31;67819;51.972;5.678;2024-03-23T03:47:45;8.9;76.5
78522;SHT31;67819;51.972;5.678;2024-03-23T03:50:14;8.8;76.2
78522;SHT31;67819;51.972;5.678;2024-03-23T03:52:42;8.8;76.4
78522;SHT31;67819;51.972;5.678;2024-03-23T03:55:14;8.8;76.1
78522;SHT31;67819;51.972;5.678;2024-03-23T03:57:43;8.7;76.1
78522;SHT31;67819;51.972;5.678;2024-03-23T04:00:13;8.7;75.9
78522;SHT31;67819;51.972;5.678;2024-03-23T04:02:42;8.7;76.0
78522;SHT31;67819;51.972;5.678;2024-03-23T04:05:10;8.7;75.7
78522;SHT31;67819;51.972;5.678;2024-03-23T04:07:39;8.6;76.0
78522;SHT31;67819;51.972;5.678;2024-03-23T04:10:10;8.6;75.8
78522;SHT31;67819;51.972;5.678;2024-03-23T04:12:39;8.6;75.2
78522;SHT31;67819;51.972;5.678;2024-03-23T04:15:08;8.6;75.3
78522;SHT31;67819;51.972;5.678;2024-03-23T04:17:36;8.5;75.3
78522;SHT31;67819;51.972;5.678;2024-03-23T04:20:06;8.5;75.2
78522;SHT31;67819;51.972;5.678;2024-03-23T04:22:38;8.5;75.3
78522;SHT31;67819;51.972;5.678;2024-03-23T04:25:08;8.4;75.1
78522;SHT31;67819;51.972;5.678;2024-03-23T04:27:37;8.4;74.8
78522;SHT31;67819;51.972;5.678;2024-03-23T04:30:08;8.4;75.0
78522;SHT31;67819;51.972;5.678;2024-03-23T04:32:38;8.4;74.9
78522;SHT31;67819;51.972;5.678;2024-03-23T04:35:09;8.4;74.9
78522;SHT31;67819;51.972;5.678;2024-03-23T04:37:38;8.3;74.6
78522;SHT31;67819;51.972;5.678;2024-03-23T04:40:11;8.3;74.3
78522;SHT31;67819;51.972;5.678;2024-03-23T04:42:40;8.3;74.3
78522;SHT31;67819;51.972;5.678;2024-03-23T04:45:11;8.3;74.3
78522;SHT31;67819;51.972;5.678;2024-03-23T04:47:41;8.3;74.3
78522;SHT31;67819;51.972;5.678;2024-03-23T04:50:10;8.2;74.4
78522;SHT31;67819;51.972;5.678;2024-03-23T04:52:38;8.2;74.2
78522;SHT31;67819;51.972;5.678;2024-03-23T04:55:08;8.2;74.1
78522;SHT31;67819;51.972;5.678;2024-03-23T04:57:38;8.2;74.1
78522;SHT31;67819;51.972;5.678;2024-03-23T05:00:07;8.2;74.0
78522;SHT31;67819;51.972;5.678;2024-03-23T05:02:43;8.2;73.5
78522;SHT31;67819;51.972;5.678;2024-03-23T05:05:12;8.2;73.6
78522;SHT31;67819;51.972;5.678;2024-03-23T05:07:40;8.2;73.7
78522;SHT31;67819;51.972;5.678;2024-03-23T05:10:10;8.2;73.7
78522;SHT31;67819;51.972;5.678;2024-03-23T05:12:40;8.2;73.6
78522;SHT31;67819;51.972;5.678;2024-03-23T05:15:08;8.2;73.6
78522;SHT31;67819;51.972;5.678;2024-03-23T05:17:38;8.2;73.5
78522;SHT31;67819;51.972;5.678;2024-03-23T05:20:07;8.2;73.4
78522;SHT31;67819;51.972;5.678;2024-03-23T05:22:36;8.2;73.6
78522;SHT31;67819;51.972;5.678;2024-03-23T05:25:05;8.2;73.6
78522;SHT31;67819;51.972;5.678;2024-03-23T05:27:34;8.2;73.2
78522;SHT31;67819;51.972;5.678;2024-03-23T05:30:03;8.1;73.1
78522;SHT31;67819;51.972;5.678;2024-03-23T05:32:32;8.1;72.7
78522;SHT31;67819;51.972;5.678;2024-03-23T05:35:01;8.1;72.4
78522;SHT31;67819;51.972;5.678;2024-03-23T05:37:29;8.1;72.7
78522;SHT31;67819;51.972;5.678;2024-03-23T05:40:00;8.1;72.4
78522;SHT31;67819;51.972;5.678;2024-03-23T05:42:30;8.0;72.5
78522;SHT31;67819;51.972;5.678;2024-03-23T05:44:58;8.0;72.7
78522;SHT31;67819;51.972;5.678;2024-03-23T05:47:27;8.0;72.7
78522;SHT31;67819;51.972;5.678;2024-03-23T05:49:56;8.0;72.6
78522;SHT31;67819;51.972;5.678;2024-03-23T05:52:25;8.0;72.1
78522;SHT31;67819;51.972;5.678;2024-03-23T05:54:54;7.9;72.6
78522;SHT31;67819;51.972;5.678;2024-03-23T05:57:25;7.9;72.4
78522;SHT31;67819;51.972;5.678;2024-03-23T05:59:54;7.9;72.4
78522;SHT31;67819;51.972;5.678;2024-03-23T06:02:23;7.9;72.9
78522;SHT31;67819;51.972;5.678;2024-03-23T06:04:52;7.9;73.0
78522;SHT31;67819;51.972;5.678;2024-03-23T06:07:20;7.9;73.2
78522;SHT31;67819;51.972;5.678;2024-03-23T06:09:49;8.0;72.7
78522;SHT31;67819;51.972;5.678;2024-03-23T06:12:18;8.0;72.6
78522;SHT31;67819;51.972;5.678;2024-03-23T06:14:48;8.1;72.6
78522;SHT31;67819;51.972;5.678;2024-03-23T06:17:18;8.1;72.1
78522;SHT31;67819;51.972;5.678;2024-03-23T06:19:47;8.2;72.3
78522;SHT31;67819;51.972;5.678;2024-03-23T06:22:16;8.3;72.5
78522;SHT31;67819;51.972;5.678;2024-03-23T06:24:44;8.3;72.7
78522;SHT31;67819;51.972;5.678;2024-03-23T06:27:13;8.3;72.1
78522;SHT31;67819;51.972;5.678;2024-03-23T06:29:41;8.3;71.9
78522;SHT31;67819;51.972;5.678;2024-03-23T06:32:10;8.4;71.5
78522;SHT31;67819;51.972;5.678;2024-03-23T06:34:41;8.4;71.8
78522;SHT31;67819;51.972;5.678;2024-03-23T06:37:09;8.4;71.1
78522;SHT31;67819;51.972;5.678;2024-03-23T06:39:38;8.4;70.9
78522;SHT31;67819;51.972;5.678;2024-03-23T06:42:09;8.5;70.6
78522;SHT31;67819;51.972;5.678;2024-03-23T06:44:39;8.5;70.3
78522;SHT31;67819;51.972;5.678;2024-03-23T06:47:08;8.5;71.0
78522;SHT31;67819;51.972;5.678;2024-03-23T06:49:37;8.5;70.6
78522;SHT31;67819;51.972;5.678;2024-03-23T06:52:06;8.5;70.5
78522;SHT31;67819;51.972;5.678;2024-03-23T06:54:36;8.5;70.8
78522;SHT31;67819;51.972;5.678;2024-03-23T06:57:05;8.5;70.7
78522;SHT31;67819;51.972;5.678;2024-03-23T06:59:33;8.6;70.2
78522;SHT31;67819;51.972;5.678;2024-03-23T07:02:02;8.6;69.2
78522;SHT31;67819;51.972;5.678;2024-03-23T07:04:31;8.6;69.7
78522;SHT31;67819;51.972;5.678;2024-03-23T07:07:01;8.6;69.4
78522;SHT31;67819;51.972;5.678;2024-03-23T07:09:30;8.6;69.9
78522;SHT31;67819;51.972;5.678;2024-03-23T07:11:59;8.6;70.6
78522;SHT31;67819;51.972;5.678;2024-03-23T07:14:28;8.6;70.6
78522;SHT31;67819;51.972;5.678;2024-03-23T07:16:56;8.7;70.9
78522;SHT31;67819;51.972;5.678;2024-03-23T07:19:27;8.7;70.9
78522;SHT31;67819;51.972;5.678;2024-03-23T07:21:55;8.8;71.3
78522;SHT31;67819;51.972;5.678;2024-03-23T07:24:24;8.8;70.8
78522;SHT31;67819;51.972;5.678;2024-03-23T07:26:52;8.9;71.0
78522;SHT31;67819;51.972;5.678;2024-03-23T07:29:24;8.9;70.1
78522;SHT31;67819;51.972;5.678;2024-03-23T07:31:53;8.9;70.6
78522;SHT31;67819;51.972;5.678;2024-03-23T07:34:21;9.0;70.8
78522;SHT31;67819;51.972;5.678;2024-03-23T07:36:50;9.0;70.7
78522;SHT31;67819;51.972;5.678;2024-03-23T07:39:21;9.0;70.1
78522;SHT31;67819;51.972;5.678;2024-03-23T07:41:50;9.0;70.2
78522;SHT31;67819;51.972;5.678;2024-03-23T07:44:18;9.1;69.8
78522;SHT31;67819;51.972;5.678;2024-03-23T07:46:47;9.1;70.3
78522;SHT31;67819;51.972;5.678;2024-03-23T07:49:17;9.1;69.3
78522;SHT31;67819;51.972;5.678;2024-03-23T07:51:46;9.1;69.7
78522;SHT31;67819;51.972;5.678;2024-03-23T07:54:15;9.1;69.0
78522;SHT31;67819;51.972;5.678;2024-03-23T07:56:43;9.1;68.7
78522;SHT31;67819;51.972;5.678;2024-03-23T07:59:12;9.1;68.2
78522;SHT31;67819;51.972;5.678;2024-03-23T08:01:43;9.1;69.0
78522;SHT31;67819;51.972;5.678;2024-03-23T08:04:13;9.1;69.2
78522;SHT31;67819;51.972;5.678;2024-03-23T08:06:44;9.1;68.9
78522;SHT31;67819;51.972;5.678;2024-03-23T08:09:12;9.1;68.2
78522;SHT31;67819;51.972;5.678;2024-03-23T08:11:41;9.2;68.3
78522;SHT31;67819;51.972;5.678;2024-03-23T08:14:11;9.2;68.9
78522;SHT31;67819;51.972;5.678;2024-03-23T08:16:40;9.2;68.3
78522;SHT31;67819;51.972;5.678;2024-03-23T08:19:14;9.3;67.8
78522;SHT31;67819;51.972;5.678;2024-03-23T08:21:42;9.3;67.3
78522;SHT31;67819;51.972;5.678;2024-03-23T08:24:11;9.4;67.2
78522;SHT31;67819;51.972;5.678;2024-03-23T08:26:40;9.4;67.1
78522;SHT31;67819;51.972;5.678;2024-03-23T08:29:10;9.5;66.3
78522;SHT31;67819;51.972;5.678;2024-03-23T08:31:39;9.6;65.4
78522;SHT31;67819;51.972;5.678;2024-03-23T08:34:07;9.6;64.2
78522;SHT31;67819;51.972;5.678;2024-03-23T08:36:38;9.7;64.4
78522;SHT31;67819;51.972;5.678;2024-03-23T08:39:06;9.8;63.4
78522;SHT31;67819;51.972;5.678;2024-03-23T08:41:35;9.8;63.2
78522;SHT31;67819;51.972;5.678;2024-03-23T08:44:03;9.9;62.9
78522;SHT31;67819;51.972;5.678;2024-03-23T08:46:32;10.0;61.8
78522;SHT31;67819;51.972;5.678;2024-03-23T08:49:01;10.0;62.6
78522;SHT31;67819;51.972;5.678;2024-03-23T08:51:29;10.0;62.4
78522;SHT31;67819;51.972;5.678;2024-03-23T08:53:58;10.0;66.2
78522;SHT31;67819;51.972;5.678;2024-03-23T08:56:26;9.9;67.8
78522;SHT31;67819;51.972;5.678;2024-03-23T08:58:55;9.6;69.4
78522;SHT31;67819;51.972;5.678;2024-03-23T09:01:23;9.2;71.8
78522;SHT31;67819;51.972;5.678;2024-03-23T09:03:52;8.9;72.0
78522;SHT31;67819;51.972;5.678;2024-03-23T09:06:20;8.7;72.7
78522;SHT31;67819;51.972;5.678;2024-03-23T09:08:49;8.6;72.2
78522;SHT31;67819;51.972;5.678;2024-03-23T09:11:18;8.4;72.7
78522;SHT31;67819;51.972;5.678;2024-03-23T09:13:46;8.2;73.2
78522;SHT31;67819;51.972;5.678;2024-03-23T09:16:16;8.0;73.7
78522;SHT31;67819;51.972;5.678;2024-03-23T09:18:44;7.9;74.1
78522;SHT31;67819;51.972;5.678;2024-03-23T09:21:13;7.8;73.5
78522;SHT31;67819;51.972;5.678;2024-03-23T09:23:43;7.8;73.5
78522;SHT31;67819;51.972;5.678;2024-03-23T09:26:12;7.8;72.1
78522;SHT31;67819;51.972;5.678;2024-03-23T09:28:41;7.8;73.4
78522;SHT31;67819;51.972;5.678;2024-03-23T09:31:09;7.9;73.9
78522;SHT31;67819;51.972;5.678;2024-03-23T09:33:41;8.0;70.2
78522;SHT31;67819;51.972;5.678;2024-03-23T09:36:10;8.1;70.7
78522;SHT31;67819;51.972;5.678;2024-03-23T09:38:39;8.2;72.3
78522;SHT31;67819;51.972;5.678;2024-03-23T09:41:09;8.3;72.2
78522;SHT31;67819;51.972;5.678;2024-03-23T09:43:39;8.5;71.0
78522;SHT31;67819;51.972;5.678;2024-03-23T09:46:08;8.6;72.4
78522;SHT31;67819;51.972;5.678;2024-03-23T09:48:36;8.9;69.5
78522;SHT31;67819;51.972;5.678;2024-03-23T09:51:05;9.1;69.1
78522;SHT31;67819;51.972;5.678;2024-03-23T09:53:36;9.4;69.2
78522;SHT31;67819;51.972;5.678;2024-03-23T09:56:07;9.6;67.3
78522;SHT31;67819;51.972;5.678;2024-03-23T09:58:38;9.8;63.4
78522;SHT31;67819;51.972;5.678;2024-03-23T10:01:07;9.9;61.3
78522;SHT31;67819;51.972;5.678;2024-03-23T10:03:44;10.0;59.9
78522;SHT31;67819;51.972;5.678;2024-03-23T10:06:13;10.1;61.2
78522;SHT31;67819;51.972;5.678;2024-03-23T10:08:43;10.3;60.7
78522;SHT31;67819;51.972;5.678;2024-03-23T10:11:15;10.4;59.6
78522;SHT31;67819;51.972;5.678;2024-03-23T10:13:45;10.5;58.8
78522;SHT31;67819;51.972;5.678;2024-03-23T10:16:24;10.6;58.1
78522;SHT31;67819;51.972;5.678;2024-03-23T10:18:53;10.6;63.4
78522;SHT31;67819;51.972;5.678;2024-03-23T10:21:22;10.3;65.8
78522;SHT31;67819;51.972;5.678;2024-03-23T10:23:50;9.6;69.7
78522;SHT31;67819;51.972;5.678;2024-03-23T10:26:20;9.1;71.1
78522;SHT31;67819;51.972;5.678;2024-03-23T10:28:59;8.8;70.5
78522;SHT31;67819;51.972;5.678;2024-03-23T10:31:29;8.6;69.3
78522;SHT31;67819;51.972;5.678;2024-03-23T10:33:59;8.6;69.7
78522;SHT31;67819;51.972;5.678;2024-03-23T10:36:27;8.6;69.8
78522;SHT31;67819;51.972;5.678;2024-03-23T10:38:57;8.6;68.3
78522;SHT31;67819;51.972;5.678;2024-03-23T10:41:28;8.7;69.4
78522;SHT31;67819;51.972;5.678;2024-03-23T10:43:58;8.8;68.7
78522;SHT31;67819;51.972;5.678;2024-03-23T10:46:27;8.9;68.1
78522;SHT31;67819;51.972;5.678;2024-03-23T10:48:56;9.1;63.5
78522;SHT31;67819;51.972;5.678;2024-03-23T10:51:25;9.2;63.0
78522;SHT31;67819;51.972;5.678;2024-03-23T10:53:56;9.3;64.5
78522;SHT31;67819;51.972;5.678;2024-03-23T10:56:27;9.4;65.1
78522;SHT31;67819;51.972;5.678;2024-03-23T10:59:04;9.5;64.2
78522;SHT31;67819;51.972;5.678;2024-03-23T11:01:34;9.6;60.8
78522;SHT31;67819;51.972;5.678;2024-03-23T11:04:03;9.7;59.9
78522;SHT31;67819;51.972;5.678;2024-03-23T11:06:38;9.7;59.7
78522;SHT31;67819;51.972;5.678;2024-03-23T11:09:41;9.7;60.8
78522;SHT31;67819;51.972;5.678;2024-03-23T11:12:27;9.8;60.7
78522;SHT31;67819;51.972;5.678;2024-03-23T11:15:01;9.8;60.0
78522;SHT31;67819;51.972;5.678;2024-03-23T11:17:30;9.9;61.6
78522;SHT31;67819;51.972;5.678;2024-03-23T11:19:59;9.9;60.5
78522;SHT31;67819;51.972;5.678;2024-03-23T11:22:41;10.0;58.9
78522;SHT31;67819;51.972;5.678;2024-03-23T11:25:21;10.1;59.4
78522;SHT31;67819;51.972;5.678;2024-03-23T11:27:51;10.1;61.3
78522;SHT31;67819;51.972;5.678;2024-03-23T11:30:22;10.0;62.9
78522;SHT31;67819;51.972;5.678;2024-03-23T11:32:53;9.9;64.9
78522;SHT31;67819;51.972;5.678;2024-03-23T11:35:30;9.9;64.0
78522;SHT31;67819;51.972;5.678;2024-03-23T11:38:07;9.9;62.9
78522;SHT31;67819;51.972;5.678;2024-03-23T11:40:37;9.9;62.8
78522;SHT31;67819;51.972;5.678;2024-03-23T11:43:08;10.0;62.7
78522;SHT31;67819;51.972;5.678;2024-03-23T11:45:39;10.0;61.1
78522;SHT31;67819;51.972;5.678;2024-03-23T11:48:10;10.1;58.8
78522;SHT31;67819;51.972;5.678;2024-03-23T11:50:40;10.1;57.5
78522;SHT31;67819;51.972;5.678;2024-03-23T11:53:18;10.1;57.7
78522;SHT31;67819;51.972;5.678;2024-03-23T11:55:48;10.1;57.2
78522;SHT31;67819;51.972;5.678;2024-03-23T11:58:19;10.1;59.2
78522;SHT31;67819;51.972;5.678;2024-03-23T12:00:55;10.2;61.0
78522;SHT31;67819;51.972;5.678;2024-03-23T12:03:25;10.2;59.9
78522;SHT31;67819;51.972;5.678;2024-03-23T12:05:56;10.3;58.9
78522;SHT31;67819;51.972;5.678;2024-03-23T12:08:29;10.3;58.8
78522;SHT31;67819;51.972;5.678;2024-03-23T12:11:07;10.3;57.8
78522;SHT31;67819;51.972;5.678;2024-03-23T12:13:40;10.3;58.2
78522;SHT31;67819;51.972;5.678;2024-03-23T12:16:14;10.4;58.5
78522;SHT31;67819;51.972;5.678;2024-03-23T12:18:44;10.4;57.6
78522;SHT31;67819;51.972;5.678;2024-03-23T12:21:13;10.5;57.1
78522;SHT31;67819;51.972;5.678;2024-03-23T12:23:43;10.6;55.0
78522;SHT31;67819;51.972;5.678;2024-03-23T12:26:13;10.7;54.9
78522;SHT31;67819;51.972;5.678;2024-03-23T12:28:43;10.8;54.2
78522;SHT31;67819;51.972;5.678;2024-03-23T12:31:14;10.9;54.9
78522;SHT31;67819;51.972;5.678;2024-03-23T12:33:42;11.0;53.8
78522;SHT31;67819;51.972;5.678;2024-03-23T12:36:11;11.1;52.0
78522;SHT31;67819;51.972;5.678;2024-03-23T12:38:40;11.3;54.4
78522;SHT31;67819;51.972;5.678;2024-03-23T12:41:10;11.3;60.5
78522;SHT31;67819;51.972;5.678;2024-03-23T12:43:38;11.2;62.0
78522;SHT31;67819;51.972;5.678;2024-03-23T12:46:07;11.0;57.5
78522;SHT31;67819;51.972;5.678;2024-03-23T12:48:38;10.7;55.5
78522;SHT31;67819;51.972;5.678;2024-03-23T12:51:08;10.5;54.7
78522;SHT31;67819;51.972;5.678;2024-03-23T12:53:37;10.4;55.9
78522;SHT31;67819;51.972;5.678;2024-03-23T12:56:06;10.4;56.9
78522;SHT31;67819;51.972;5.678;2024-03-23T12:58:34;10.4;58.1
78522;SHT31;67819;51.972;5.678;2024-03-23T13:01:03;10.6;56.9
78522;SHT31;67819;51.972;5.678;2024-03-23T13:03:33;10.9;56.5
78522;SHT31;67819;51.972;5.678;2024-03-23T13:06:01;11.0;55.3
78522;SHT31;67819;51.972;5.678;2024-03-23T13:08:34;11.1;54.8
78522;SHT31;67819;51.972;5.678;2024-03-23T13:11:02;11.1;53.2
78522;SHT31;67819;51.972;5.678;2024-03-23T13:13:31;11.1;53.5
78522;SHT31;67819;51.972;5.678;2024-03-23T13:16:00;11.1;53.0
78522;SHT31;67819;51.972;5.678;2024-03-23T13:18:29;11.0;53.8
78522;SHT31;67819;51.972;5.678;2024-03-23T13:20:57;11.0;54.1
78522;SHT31;67819;51.972;5.678;2024-03-23T13:23:26;10.9;54.9
78522;SHT31;67819;51.972;5.678;2024-03-23T13:25:56;10.8;55.2
78522;SHT31;67819;51.972;5.678;2024-03-23T13:28:24;10.7;55.9
78522;SHT31;67819;51.972;5.678;2024-03-23T13:30:54;10.7;56.7
78522;SHT31;67819;51.972;5.678;2024-03-23T13:33:26;10.7;55.8
78522;SHT31;67819;51.972;5.678;2024-03-23T13:35:55;10.7;57.5
78522;SHT31;67819;51.972;5.678;2024-03-23T13:38:25;10.6;57.5
78522;SHT31;67819;51.972;5.678;2024-03-23T13:40:55;10.6;57.0
78522;SHT31;67819;51.972;5.678;2024-03-23T13:43:25;10.5;55.4
78522;SHT31;67819;51.972;5.678;2024-03-23T13:45:56;10.5;54.7
78522;SHT31;67819;51.972;5.678;2024-03-23T13:48:27;10.4;55.7
78522;SHT31;67819;51.972;5.678;2024-03-23T13:50:59;10.4;54.7
78522;SHT31;67819;51.972;5.678;2024-03-23T13:53:28;10.3;54.9
78522;SHT31;67819;51.972;5.678;2024-03-23T13:55:57;10.3;55.4
78522;SHT31;67819;51.972;5.678;2024-03-23T13:58:25;10.3;64.7
78522;SHT31;67819;51.972;5.678;2024-03-23T14:00:56;10.2;69.2
78522;SHT31;67819;51.972;5.678;2024-03-23T14:03:26;9.9;73.2
78522;SHT31;67819;51.972;5.678;2024-03-23T14:05:57;9.8;72.3
78522;SHT31;67819;51.972;5.678;2024-03-23T14:08:28;9.7;69.7
78522;SHT31;67819;51.972;5.678;2024-03-23T14:10:59;9.6;67.8
78522;SHT31;67819;51.972;5.678;2024-03-23T14:13:28;9.4;68.4
78522;SHT31;67819;51.972;5.678;2024-03-23T14:15:58;9.3;68.3
78522;SHT31;67819;51.972;5.678;2024-03-23T14:18:26;9.2;68.3
78522;SHT31;67819;51.972;5.678;2024-03-23T14:20:56;9.2;67.3
78522;SHT31;67819;51.972;5.678;2024-03-23T14:23:27;9.2;66.2
78522;SHT31;67819;51.972;5.678;2024-03-23T14:25:56;9.1;67.5
78522;SHT31;67819;51.972;5.678;2024-03-23T14:28:25;8.9;69.0
78522;SHT31;67819;51.972;5.678;2024-03-23T14:30:56;8.6;70.2
78522;SHT31;67819;51.972;5.678;2024-03-23T14:33:25;8.4;71.4
78522;SHT31;67819;51.972;5.678;2024-03-23T14:35:54;8.2;72.2
78522;SHT31;67819;51.972;5.678;2024-03-23T14:38:24;8.2;70.6
78522;SHT31;67819;51.972;5.678;2024-03-23T14:40:57;8.1;72.4
78522;SHT31;67819;51.972;5.678;2024-03-23T14:43:26;8.1;74.2
78522;SHT31;67819;51.972;5.678;2024-03-23T14:46:11;8.1;72.9
78522;SHT31;67819;51.972;5.678;2024-03-23T14:48:42;8.2;72.4
78522;SHT31;67819;51.972;5.678;2024-03-23T14:51:12;8.4;73.1
78522;SHT31;67819;51.972;5.678;2024-03-23T14:53:45;8.5;70.3
78522;SHT31;67819;51.972;5.678;2024-03-23T14:56:14;8.6;69.7
78522;SHT31;67819;51.972;5.678;2024-03-23T14:58:46;8.7;68.7
78522;SHT31;67819;51.972;5.678;2024-03-23T15:01:15;8.7;68.8
78522;SHT31;67819;51.972;5.678;2024-03-23T15:03:43;8.8;70.5
78522;SHT31;67819;51.972;5.678;2024-03-23T15:06:16;9.1;70.3
78522;SHT31;67819;51.972;5.678;2024-03-23T15:08:44;9.4;69.3
78522;SHT31;67819;51.972;5.678;2024-03-23T15:11:15;10.0;67.6
78522;SHT31;67819;51.972;5.678;2024-03-23T15:13:49;10.5;62.5
78522;SHT31;67819;51.972;5.678;2024-03-23T15:16:18;10.9;62.5
78522;SHT31;67819;51.972;5.678;2024-03-23T15:18:48;11.2;59.2
78522;SHT31;67819;51.972;5.678;2024-03-23T15:21:17;11.4;58.2
78522;SHT31;67819;51.972;5.678;2024-03-23T15:23:47;11.6;58.2
78522;SHT31;67819;51.972;5.678;2024-03-23T15:26:16;11.7;56.3
78522;SHT31;67819;51.972;5.678;2024-03-23T15:28:48;11.8;55.2
78522;SHT31;67819;51.972;5.678;2024-03-23T15:31:28;11.8;56.4
78522;SHT31;67819;51.972;5.678;2024-03-23T15:33:57;11.8;55.9
78522;SHT31;67819;51.972;5.678;2024-03-23T15:36:28;11.8;54.2
78522;SHT31;67819;51.972;5.678;2024-03-23T15:38:57;11.8;52.5
78522;SHT31;67819;51.972;5.678;2024-03-23T15:41:26;11.7;51.6
78522;SHT31;67819;51.972;5.678;2024-03-23T15:43:57;11.6;52.0
78522;SHT31;67819;51.972;5.678;2024-03-23T15:46:25;11.5;52.4
78522;SHT31;67819;51.972;5.678;2024-03-23T15:48:56;11.5;53.0
78522;SHT31;67819;51.972;5.678;2024-03-23T15:51:25;11.4;53.2
78522;SHT31;67819;51.972;5.678;2024-03-23T15:53:58;11.4;53.6
78522;SHT31;67819;51.972;5.678;2024-03-23T15:56:27;11.3;53.4
78522;SHT31;67819;51.972;5.678;2024-03-23T15:58:57;11.3;54.6
78522;SHT31;67819;51.972;5.678;2024-03-23T16:01:32;11.2;54.3
78522;SHT31;67819;51.972;5.678;2024-03-23T16:04:01;11.2;54.1
78522;SHT31;67819;51.972;5.678;2024-03-23T16:06:32;11.2;53.7
78522;SHT31;67819;51.972;5.678;2024-03-23T16:09:01;11.2;54.0
78522;SHT31;67819;51.972;5.678;2024-03-23T16:11:31;11.2;53.9
78522;SHT31;67819;51.972;5.678;2024-03-23T16:14:00;11.2;53.8
78522;SHT31;67819;51.972;5.678;2024-03-23T16:16:30;11.2;55.2
78522;SHT31;67819;51.972;5.678;2024-03-23T16:19:01;11.2;54.9
78522;SHT31;67819;51.972;5.678;2024-03-23T16:21:29;11.1;55.2
78522;SHT31;67819;51.972;5.678;2024-03-23T16:23:58;11.0;56.0
78522;SHT31;67819;51.972;5.678;2024-03-23T16:26:26;10.9;55.7
78522;SHT31;67819;51.972;5.678;2024-03-23T16:28:57;10.8;56.6
78522;SHT31;67819;51.972;5.678;2024-03-23T16:31:25;10.7;56.7
78522;SHT31;67819;51.972;5.678;2024-03-23T16:33:54;10.6;57.7
78522;SHT31;67819;51.972;5.678;2024-03-23T16:36:25;10.5;58.1
78522;SHT31;67819;51.972;5.678;2024-03-23T16:38:54;10.5;58.2
78522;SHT31;67819;51.972;5.678;2024-03-23T16:41:23;10.4;58.2
78522;SHT31;67819;51.972;5.678;2024-03-23T16:43:51;10.4;58.6
78522;SHT31;67819;51.972;5.678;2024-03-23T16:46:20;10.3;58.2
78522;SHT31;67819;51.972;5.678;2024-03-23T16:48:49;10.3;57.3
78522;SHT31;67819;51.972;5.678;2024-03-23T16:51:17;10.2;57.9
78522;SHT31;67819;51.972;5.678;2024-03-23T16:53:48;10.1;57.7
78522;SHT31;67819;51.972;5.678;2024-03-23T16:56:17;10.0;57.5
78522;SHT31;67819;51.972;5.678;2024-03-23T16:58:47;10.0;58.2
78522;SHT31;67819;51.972;5.678;2024-03-23T17:01:16;9.9;58.6
78522;SHT31;67819;51.972;5.678;2024-03-23T17:03:48;9.9;58.7
78522;SHT31;67819;51.972;5.678;2024-03-23T17:06:18;9.9;58.5
78522;SHT31;67819;51.972;5.678;2024-03-23T17:08:50;9.9;58.6
78522;SHT31;67819;51.972;5.678;2024-03-23T17:11:19;9.9;58.9
78522;SHT31;67819;51.972;5.678;2024-03-23T17:13:49;9.9;59.2
78522;SHT31;67819;51.972;5.678;2024-03-23T17:16:20;9.9;59.3
78522;SHT31;67819;51.972;5.678;2024-03-23T17:18:49;9.9;59.2
78522;SHT31;67819;51.972;5.678;2024-03-23T17:21:18;9.9;59.2